Airfield :







YOU CAN JOIN US ON...

 
LOGIN :

Register | Disclaimer

   EN    FR    IT 

 









Legend :    VFR   Marginal VFR   IFR   Intensive IFR   Very Intensive IFR
Visi :
Ceiling :
>= 8 km
>= 3000ft
5 to 8 km
1000 to 3000 ft
1500m to 5 km
500 to 1000 ft
800 to 1500m
200 to 500 ft
< 800m
< 200 ft
Symbols :   Thunderstorms  Fog  Heavy snow  Heavy precipitations  Wind > 20 kt






- Airport Elevation : 461 ft
- IATA code : YYT


CYYT - St John's Int

CURRENT METAR :
  • 170400Z 29030G41KT 15SM BKN040 M02/M10 A2968 RMK SC5 SLP057

EXPIRED METARs :
  • 170300Z 26030G37KT 15SM SCT035 M02/M09 A2965 RMK SC4 SLP046
  • 170200Z 28030G37KT 15SM SCT030 M02/M09 A2964 RMK SC4 SLP044

TAF TAF CYYT
Valid from the 17 at 00:00 until the 18 at 00:00 UTC


162338Z 1700/1724 28025G35KT P6SM SCT040
TEMPO 1700/1702 BKN040
FM170900 29020G35KT P6SM FEW025
FM171500 28020G35KT P6SM BKN030
FM172000 29017KT P6SM FEW030 RMK NXT FCST BY 170600Z



MET'MAP, your aeronautical weather chart ! - Copyright ORBIFLY December 2007 - Disclaimer

ORBIFLY MET'MAP TEAM :

Programming & Development : Alexandra Zaïnal
Concept & Development : Baudouin d'Aumeries
Co-Development & Prog : Marc-Olivier Méhu
Technical & hardware support : Manuel Goepfert

Contact : metmap@orbifly.com




SOURCES & CREDITS :

   NOAA